createdAt,value
2023-12-02T00:00:53.749Z,26.6
2023-12-02T00:01:55.525Z,26.6
2023-12-02T00:02:57.511Z,26.5
2023-12-02T00:03:59.536Z,26.6
2023-12-02T00:05:02.142Z,26.6
2023-12-02T00:06:04.145Z,26.6
2023-12-02T00:07:09.079Z,26.6
2023-12-02T00:08:10.902Z,26.6
2023-12-02T00:09:12.721Z,26.6
2023-12-02T00:10:14.544Z,26.6
2023-12-02T00:11:16.388Z,26.6
2023-12-02T00:12:18.209Z,26.6
2023-12-02T00:13:20.044Z,26.6
2023-12-02T00:14:21.798Z,26.6
2023-12-02T00:15:23.686Z,26.6
2023-12-02T00:16:25.801Z,26.6
2023-12-02T00:17:27.535Z,26.6
2023-12-02T00:18:29.549Z,26.6
2023-12-02T00:19:32.221Z,26.6
2023-12-02T00:20:34.318Z,26.7
2023-12-02T00:21:36.094Z,26.7
2023-12-02T00:22:37.826Z,26.6
2023-12-02T00:23:39.603Z,26.6
2023-12-02T00:24:41.361Z,26.6
2023-12-02T00:25:43.133Z,26.6
2023-12-02T00:26:44.963Z,26.6
2023-12-02T00:27:46.756Z,26.6
2023-12-02T00:28:48.523Z,26.6
2023-12-02T00:29:50.267Z,26.6
2023-12-02T00:30:52.010Z,26.6
2023-12-02T00:31:53.743Z,26.7
2023-12-02T00:32:55.549Z,26.7
2023-12-02T00:33:58.034Z,26.7
2023-12-02T00:35:00.648Z,26.7
2023-12-02T00:36:02.384Z,26.7
2023-12-02T00:37:04.458Z,26.7
2023-12-02T00:38:06.244Z,26.7
2023-12-02T00:39:08.061Z,26.6
2023-12-02T00:40:10.159Z,26.6
2023-12-02T00:41:12.048Z,26.6
2023-12-02T00:42:14.091Z,26.6
2023-12-02T00:43:16.363Z,26.6
2023-12-02T00:44:18.044Z,26.6
2023-12-02T00:45:19.833Z,26.6
2023-12-02T00:46:21.707Z,26.6
2023-12-02T00:47:23.459Z,26.6
2023-12-02T00:48:25.937Z,26.6
2023-12-02T00:49:28.238Z,26.6
2023-12-02T00:50:30.448Z,26.6
2023-12-02T00:51:32.222Z,26.6
2023-12-02T00:52:34.343Z,26.6
2023-12-02T00:53:36.085Z,26.7
2023-12-02T00:54:37.894Z,26.6
2023-12-02T00:55:40.170Z,26.6
2023-12-02T00:56:41.907Z,26.6
2023-12-02T00:57:43.857Z,26.6
2023-12-02T00:58:45.670Z,26.6
2023-12-02T00:59:47.397Z,26.6
2023-12-02T01:00:49.167Z,26.6
2023-12-02T01:01:50.979Z,26.6
2023-12-02T01:02:53.126Z,26.6
2023-12-02T01:03:55.509Z,26.6
2023-12-02T01:04:57.422Z,26.6
2023-12-02T01:05:59.607Z,26.6
2023-12-02T01:07:01.901Z,26.6
2023-12-02T01:08:03.635Z,26.6
2023-12-02T01:09:05.438Z,26.6
2023-12-02T01:10:07.273Z,26.6
2023-12-02T01:11:09.127Z,26.6
2023-12-02T01:12:10.875Z,26.6
2023-12-02T01:13:12.799Z,26.6
2023-12-02T01:14:14.587Z,26.6
2023-12-02T01:15:16.362Z,26.6
2023-12-02T01:16:18.676Z,26.6
2023-12-02T01:17:20.426Z,26.6
2023-12-02T01:18:22.226Z,26.6
2023-12-02T01:19:24.564Z,26.6
2023-12-02T01:20:26.765Z,26.6
2023-12-02T01:21:28.745Z,26.6
2023-12-02T01:22:31.184Z,26.6
2023-12-02T01:23:33.673Z,26.6
2023-12-02T01:24:35.441Z,26.6
2023-12-02T01:25:37.320Z,26.6
2023-12-02T01:26:39.115Z,26.6
2023-12-02T01:27:40.878Z,26.6
2023-12-02T01:28:42.716Z,26.6
2023-12-02T01:29:45.424Z,26.6
2023-12-02T01:30:52.709Z,26.6
2023-12-02T01:31:54.514Z,26.6
2023-12-02T01:32:56.320Z,26.6
2023-12-02T01:33:59.010Z,26.6
2023-12-02T01:35:01.452Z,26.6
2023-12-02T01:36:03.177Z,26.6
2023-12-02T01:37:05.301Z,26.6
2023-12-02T01:38:07.080Z,26.6
2023-12-02T01:39:08.777Z,26.6
2023-12-02T01:40:10.617Z,26.6
2023-12-02T01:41:12.387Z,26.6
2023-12-02T01:42:14.152Z,26.6
2023-12-02T01:43:16.067Z,26.6
2023-12-02T01:44:17.874Z,26.6
2023-12-02T01:45:19.726Z,26.6
2023-12-02T01:46:21.810Z,26.6
2023-12-02T01:47:23.579Z,26.5
2023-12-02T01:48:25.468Z,26.6
2023-12-02T01:49:28.212Z,26.6
2023-12-02T01:50:30.173Z,26.5
2023-12-02T01:51:32.067Z,26.5
2023-12-02T01:52:34.041Z,26.6
2023-12-02T01:53:35.780Z,26.6
2023-12-02T01:54:37.606Z,26.5
2023-12-02T01:55:39.624Z,26.5
2023-12-02T01:56:41.354Z,26.5
2023-12-02T01:57:44.395Z,26.5
2023-12-02T01:58:46.158Z,26.5
2023-12-02T01:59:47.975Z,26.5
2023-12-02T02:00:49.832Z,26.5
2023-12-02T02:01:51.622Z,26.5
2023-12-02T02:02:53.606Z,26.5
2023-12-02T02:03:55.844Z,26.5
2023-12-02T02:04:57.905Z,26.5
2023-12-02T02:06:00.402Z,26.5
2023-12-02T02:07:05.048Z,26.5
2023-12-02T02:08:06.843Z,26.5
2023-12-02T02:09:08.591Z,26.6
2023-12-02T02:10:10.506Z,26.5
2023-12-02T02:11:12.220Z,26.5
2023-12-02T02:12:14.008Z,26.5
2023-12-02T02:13:15.913Z,26.6
2023-12-02T02:14:17.668Z,26.6
2023-12-02T02:15:19.521Z,26.5
2023-12-02T02:16:21.507Z,26.5
2023-12-02T02:17:23.242Z,26.5
2023-12-02T02:18:25.894Z,26.5
2023-12-02T02:19:36.383Z,26.5
2023-12-02T02:20:38.629Z,26.5
2023-12-02T02:21:40.381Z,26.5
2023-12-02T02:22:42.133Z,26.5
2023-12-02T02:23:43.971Z,26.5
2023-12-02T02:24:45.710Z,26.5
2023-12-02T02:25:47.466Z,26.5
2023-12-02T02:26:49.243Z,26.5
2023-12-02T02:27:51.015Z,26.5
2023-12-02T02:28:52.788Z,26.5
2023-12-02T02:29:54.496Z,26.5
2023-12-02T02:30:56.845Z,26.5
2023-12-02T02:31:58.661Z,26.5
2023-12-02T02:33:00.442Z,26.5
2023-12-02T02:34:02.836Z,26.5
2023-12-02T02:35:04.697Z,26.5
2023-12-02T02:36:06.409Z,26.5
2023-12-02T02:37:08.347Z,26.5
2023-12-02T02:38:10.073Z,26.5
2023-12-02T02:39:11.970Z,26.5
2023-12-02T02:40:14.212Z,26.5
2023-12-02T02:41:15.959Z,26.5
2023-12-02T02:42:17.944Z,26.5
2023-12-02T02:43:20.063Z,26.5
2023-12-02T02:44:21.892Z,26.5
2023-12-02T02:45:23.690Z,26.5
2023-12-02T02:46:26.135Z,26.6
2023-12-02T02:47:28.008Z,26.5
2023-12-02T02:48:30.241Z,26.5
2023-12-02T02:49:32.756Z,26.5
2023-12-02T02:50:34.898Z,26.5
2023-12-02T02:51:36.647Z,26.5
2023-12-02T02:52:38.659Z,26.5
2023-12-02T02:53:40.408Z,26.6
2023-12-02T02:54:42.127Z,26.6
2023-12-02T02:55:43.879Z,26.6
2023-12-02T02:56:45.627Z,26.6
2023-12-02T02:57:47.339Z,26.6
2023-12-02T02:58:49.041Z,26.6
2023-12-02T02:59:50.769Z,26.6
2023-12-02T03:00:52.590Z,26.6
2023-12-02T03:01:54.480Z,26.6
2023-12-02T03:02:56.563Z,26.6
2023-12-02T03:03:58.497Z,26.6
2023-12-02T03:05:00.681Z,26.5
2023-12-02T03:06:02.482Z,26.6
2023-12-02T03:07:04.469Z,26.6
2023-12-02T03:08:06.287Z,26.6
2023-12-02T03:09:08.092Z,26.6
2023-12-02T03:10:10.224Z,26.6
2023-12-02T03:11:12.031Z,26.6
2023-12-02T03:12:13.777Z,26.6
2023-12-02T03:13:15.956Z,26.6
2023-12-02T03:14:17.721Z,26.6
2023-12-02T03:15:19.899Z,26.6
2023-12-02T03:16:21.813Z,26.6
2023-12-02T03:17:23.743Z,26.6
2023-12-02T03:18:25.616Z,26.6
2023-12-02T03:19:28.260Z,26.6
2023-12-02T03:20:30.563Z,26.6
2023-12-02T03:21:32.395Z,26.6
2023-12-02T03:22:35.001Z,26.6
2023-12-02T03:23:36.895Z,26.7
2023-12-02T03:24:38.760Z,26.7
2023-12-02T03:25:40.817Z,26.7
2023-12-02T03:26:42.621Z,26.7
2023-12-02T03:27:47.246Z,26.7
2023-12-02T03:28:48.973Z,26.6
2023-12-02T03:29:50.721Z,26.6
2023-12-02T03:30:52.457Z,26.6
2023-12-02T03:31:54.201Z,26.6
2023-12-02T03:32:56.080Z,26.6
2023-12-02T03:33:58.726Z,26.6
2023-12-02T03:35:00.945Z,26.6
2023-12-02T03:36:02.765Z,26.6
2023-12-02T03:37:04.619Z,26.6
2023-12-02T03:38:06.398Z,26.6
2023-12-02T03:39:08.133Z,26.6
2023-12-02T03:40:09.936Z,26.6
2023-12-02T03:41:11.729Z,26.6
2023-12-02T03:42:13.519Z,26.6
2023-12-02T03:43:15.602Z,26.6
2023-12-02T03:44:17.345Z,26.6
2023-12-02T03:45:19.132Z,26.6
2023-12-02T03:46:21.493Z,26.5
2023-12-02T03:47:23.244Z,26.5
2023-12-02T03:48:25.158Z,26.4
2023-12-02T03:49:27.923Z,26.4
2023-12-02T03:50:30.353Z,26.3
2023-12-02T03:51:32.227Z,26.3
2023-12-02T03:52:34.553Z,26.2
2023-12-02T03:53:36.319Z,26.2
2023-12-02T03:54:38.273Z,26.2
2023-12-02T03:55:40.326Z,26.2
2023-12-02T03:56:42.089Z,26.3
2023-12-02T03:57:44.104Z,26.3
2023-12-02T03:58:45.817Z,26.3
2023-12-02T03:59:47.557Z,26.3
2023-12-02T04:00:49.290Z,26.3
2023-12-02T04:01:51.082Z,26.3
2023-12-02T04:02:53.055Z,26.4
2023-12-02T04:03:55.025Z,26.4
2023-12-02T04:04:57.044Z,26.4
2023-12-02T04:05:59.001Z,26.4
2023-12-02T04:07:01.031Z,26.5
2023-12-02T04:08:03.293Z,26.5
2023-12-02T04:09:05.852Z,26.5
2023-12-02T04:10:07.796Z,26.5
2023-12-02T04:11:09.540Z,26.5
2023-12-02T04:12:11.440Z,26.5
2023-12-02T04:13:13.496Z,26.5
2023-12-02T04:14:15.236Z,26.5
2023-12-02T04:15:17.035Z,26.6
2023-12-02T04:16:19.010Z,26.6
2023-12-02T04:17:20.739Z,26.6
2023-12-02T04:18:22.525Z,26.6
2023-12-02T04:19:25.311Z,26.6
2023-12-02T04:20:27.582Z,26.6
2023-12-02T04:21:29.578Z,26.6
2023-12-02T04:22:31.721Z,26.6
2023-12-02T04:23:33.487Z,26.6
2023-12-02T04:24:35.385Z,26.6
2023-12-02T04:25:37.544Z,26.6
2023-12-02T04:26:39.310Z,26.7
2023-12-02T04:27:41.035Z,26.6
2023-12-02T04:28:42.993Z,26.7
2023-12-02T04:29:44.721Z,26.6
2023-12-02T04:30:46.475Z,26.7
2023-12-02T04:31:48.250Z,26.7
2023-12-02T04:32:50.068Z,26.7
2023-12-02T04:33:52.425Z,26.7
2023-12-02T04:34:55.065Z,26.7
2023-12-02T04:35:56.919Z,26.7
2023-12-02T04:36:58.971Z,26.7
2023-12-02T04:38:00.705Z,26.7
2023-12-02T04:39:02.469Z,26.8
2023-12-02T04:40:04.372Z,26.8
2023-12-02T04:41:06.068Z,26.7
2023-12-02T04:42:07.869Z,26.7
2023-12-02T04:43:09.835Z,26.7
2023-12-02T04:44:11.640Z,26.8
2023-12-02T04:45:13.455Z,26.8
2023-12-02T04:46:15.401Z,26.7
2023-12-02T04:47:17.150Z,26.7
2023-12-02T04:48:19.045Z,26.8
2023-12-02T04:49:21.334Z,26.7
2023-12-02T04:50:23.302Z,26.7
2023-12-02T04:51:25.715Z,26.7
2023-12-02T04:52:27.777Z,26.7
2023-12-02T04:53:29.715Z,26.7
2023-12-02T04:54:31.837Z,26.7
2023-12-02T04:55:33.730Z,26.8
2023-12-02T04:56:35.462Z,26.8
2023-12-02T04:57:37.249Z,26.8
2023-12-02T04:58:39.533Z,26.8
2023-12-02T04:59:41.269Z,26.8
2023-12-02T05:00:43.016Z,26.8
2023-12-02T05:01:45.218Z,26.8
2023-12-02T05:02:47.351Z,26.8
2023-12-02T05:03:49.579Z,26.8
2023-12-02T05:04:52.061Z,26.8
2023-12-02T05:05:53.879Z,26.8
2023-12-02T05:06:56.233Z,26.9
2023-12-02T05:07:58.267Z,26.8
2023-12-02T05:09:00.080Z,26.8
2023-12-02T05:10:02.119Z,26.8
2023-12-02T05:11:03.897Z,26.8
2023-12-02T05:12:05.661Z,26.8
2023-12-02T05:13:07.593Z,26.8
2023-12-02T05:14:09.326Z,26.8
2023-12-02T05:15:11.172Z,26.8
2023-12-02T05:16:13.455Z,26.8
2023-12-02T05:17:15.194Z,26.8
2023-12-02T05:18:17.009Z,26.8
2023-12-02T05:19:19.497Z,26.8
2023-12-02T05:20:21.857Z,26.8
2023-12-02T05:21:23.727Z,26.8
2023-12-02T05:22:25.845Z,26.8
2023-12-02T05:23:27.642Z,26.8
2023-12-02T05:24:29.471Z,26.8
2023-12-02T05:25:31.603Z,26.8
2023-12-02T05:26:33.384Z,26.8
2023-12-02T05:27:35.145Z,26.8
2023-12-02T05:28:37.211Z,26.9
2023-12-02T05:29:38.992Z,26.9
2023-12-02T05:30:40.765Z,26.9
2023-12-02T05:31:43.011Z,26.9
2023-12-02T05:32:44.814Z,26.9
2023-12-02T05:33:46.844Z,26.9
2023-12-02T05:34:48.804Z,26.8
2023-12-02T05:35:50.868Z,26.8
2023-12-02T05:36:52.614Z,26.9
2023-12-02T05:37:54.496Z,26.8
2023-12-02T05:38:56.493Z,26.8
2023-12-02T05:39:58.490Z,26.8
2023-12-02T05:41:00.244Z,26.8
2023-12-02T05:42:02.025Z,26.8
2023-12-02T05:43:04.013Z,26.8
2023-12-02T05:44:05.952Z,26.9
2023-12-02T05:45:07.813Z,26.9
2023-12-02T05:46:10.143Z,26.9
2023-12-02T05:47:11.876Z,26.9
2023-12-02T05:48:13.685Z,26.9
2023-12-02T05:49:16.255Z,26.9
2023-12-02T05:50:21.196Z,26.9
2023-12-02T05:51:22.952Z,26.9
2023-12-02T05:52:25.263Z,26.9
2023-12-02T05:53:27.065Z,26.9
2023-12-02T05:54:28.793Z,26.9
2023-12-02T05:55:31.593Z,26.9
2023-12-02T05:56:33.317Z,26.9
2023-12-02T05:57:35.150Z,26.9
2023-12-02T05:58:37.146Z,26.9
2023-12-02T05:59:38.832Z,26.9
2023-12-02T06:00:40.636Z,26.9
2023-12-02T06:01:42.820Z,26.9
2023-12-02T06:02:44.817Z,26.9
2023-12-02T06:03:46.635Z,26.9
2023-12-02T06:04:49.010Z,26.9
2023-12-02T06:05:50.905Z,26.9
2023-12-02T06:06:52.613Z,26.9
2023-12-02T06:07:54.466Z,26.9
2023-12-02T06:08:56.322Z,26.9
2023-12-02T06:09:58.443Z,26.9
2023-12-02T06:11:00.283Z,26.9
2023-12-02T06:12:02.083Z,26.9
2023-12-02T06:13:04.085Z,26.9
2023-12-02T06:14:05.972Z,26.9
2023-12-02T06:15:07.935Z,26.9
2023-12-02T06:16:10.054Z,26.9
2023-12-02T06:17:11.866Z,26.9
2023-12-02T06:18:13.700Z,26.9
2023-12-02T06:19:16.341Z,26.9
2023-12-02T06:20:18.669Z,26.9
2023-12-02T06:21:20.459Z,26.9
2023-12-02T06:22:25.042Z,26.9
2023-12-02T06:23:26.881Z,27
2023-12-02T06:24:28.809Z,27
2023-12-02T06:25:31.313Z,27
2023-12-02T06:26:33.101Z,26.9
2023-12-02T06:27:34.918Z,26.9
2023-12-02T06:28:37.263Z,26.9
2023-12-02T06:29:39.103Z,26.9
2023-12-02T06:30:40.891Z,26.9
2023-12-02T06:31:42.860Z,27
2023-12-02T06:32:44.657Z,27
2023-12-02T06:33:46.639Z,27
2023-12-02T06:34:48.702Z,27
2023-12-02T06:35:50.891Z,27
2023-12-02T06:36:52.674Z,27
2023-12-02T06:37:54.462Z,27
2023-12-02T06:38:59.003Z,27
2023-12-02T06:40:03.124Z,26.9
2023-12-02T06:41:04.912Z,27
2023-12-02T06:42:06.667Z,27
2023-12-02T06:43:09.839Z,27
2023-12-02T06:44:11.586Z,27
2023-12-02T06:45:13.324Z,27
2023-12-02T06:46:15.366Z,27
2023-12-02T06:47:17.149Z,27
2023-12-02T06:48:18.927Z,27
2023-12-02T06:49:21.323Z,27
2023-12-02T06:50:23.745Z,27
2023-12-02T06:51:25.538Z,26.9
2023-12-02T06:52:27.516Z,27
2023-12-02T06:53:29.332Z,27
2023-12-02T06:54:31.129Z,27
2023-12-02T06:55:33.649Z,27
2023-12-02T06:56:35.430Z,27
2023-12-02T06:57:37.328Z,27
2023-12-02T06:58:39.554Z,27
2023-12-02T06:59:41.326Z,27
2023-12-02T07:00:43.185Z,27
2023-12-02T07:01:45.170Z,27
2023-12-02T07:02:47.079Z,27
2023-12-02T07:03:48.824Z,27
2023-12-02T07:04:50.841Z,27
2023-12-02T07:05:52.690Z,27
2023-12-02T07:06:54.995Z,27
2023-12-02T07:07:57.006Z,27
2023-12-02T07:08:58.811Z,27
2023-12-02T07:10:00.743Z,27
2023-12-02T07:11:02.663Z,27
2023-12-02T07:12:04.445Z,27
2023-12-02T07:13:06.377Z,27
2023-12-02T07:14:08.090Z,27
2023-12-02T07:15:09.915Z,27
2023-12-02T07:16:12.303Z,27
2023-12-02T07:17:14.165Z,27
2023-12-02T07:18:15.990Z,27
2023-12-02T07:19:18.402Z,27
2023-12-02T07:20:20.933Z,27
2023-12-02T07:21:22.713Z,27
2023-12-02T07:22:24.859Z,27
2023-12-02T07:23:26.818Z,27
2023-12-02T07:24:28.642Z,27
2023-12-02T07:25:30.530Z,27
2023-12-02T07:26:32.340Z,27
2023-12-02T07:27:34.109Z,27.1
2023-12-02T07:28:36.130Z,27
2023-12-02T07:30:51.747Z,27
2023-12-02T07:31:53.960Z,27.1
2023-12-02T07:32:55.716Z,27
2023-12-02T07:33:57.535Z,27
2023-12-02T07:34:59.494Z,27
2023-12-02T07:36:01.900Z,27
2023-12-02T07:37:03.723Z,27
2023-12-02T07:38:05.548Z,27
2023-12-02T07:39:07.463Z,27
2023-12-02T07:40:14.289Z,27
2023-12-02T07:41:16.092Z,27
2023-12-02T07:42:17.855Z,27
2023-12-02T07:43:19.681Z,27
2023-12-02T07:44:21.436Z,27
2023-12-02T07:45:23.251Z,27
2023-12-02T07:46:25.092Z,27
2023-12-02T07:47:32.215Z,27
2023-12-02T07:48:34.406Z,27
2023-12-02T07:49:36.805Z,27
2023-12-02T07:50:38.633Z,27
2023-12-02T07:51:40.312Z,27
2023-12-02T07:52:42.064Z,27
2023-12-02T07:53:44.050Z,27
2023-12-02T07:54:45.933Z,27
2023-12-02T07:55:47.755Z,27
2023-12-02T07:56:49.788Z,27
2023-12-02T07:57:51.566Z,27
2023-12-02T07:58:53.389Z,27.1
2023-12-02T07:59:55.298Z,27
2023-12-02T08:00:57.210Z,27.1
2023-12-02T08:01:59.081Z,27
2023-12-02T08:03:01.483Z,27.1
2023-12-02T08:04:03.358Z,27.1
2023-12-02T08:06:19.315Z,27.1
2023-12-02T08:07:21.048Z,27.1
2023-12-02T08:08:22.783Z,27.1
2023-12-02T08:09:24.543Z,27.1
2023-12-02T08:10:26.380Z,27.1
2023-12-02T08:11:28.879Z,27.1
2023-12-02T08:12:30.953Z,27.1
2023-12-02T08:13:32.742Z,27.1
2023-12-02T08:14:34.707Z,27.1
2023-12-02T08:15:36.411Z,27.1
2023-12-02T08:16:38.231Z,27.1
2023-12-02T08:17:40.133Z,27.1
2023-12-02T08:18:42.312Z,27.1
2023-12-02T08:19:44.123Z,27.1
2023-12-02T08:20:46.742Z,27.1
2023-12-02T08:21:48.738Z,27.1
2023-12-02T08:22:50.549Z,27.1
2023-12-02T08:23:52.516Z,27.1
2023-12-02T08:24:54.276Z,27
2023-12-02T08:25:56.074Z,27
2023-12-02T08:26:58.001Z,27
2023-12-02T08:27:59.982Z,27
2023-12-02T08:29:01.838Z,27
2023-12-02T08:30:04.810Z,27
2023-12-02T08:31:06.584Z,27
2023-12-02T08:32:08.361Z,27
2023-12-02T08:33:10.306Z,27
2023-12-02T08:34:15.430Z,27
2023-12-02T08:35:18.344Z,27
2023-12-02T08:36:20.611Z,27
2023-12-02T08:37:22.431Z,27
2023-12-02T08:38:24.175Z,27
2023-12-02T08:39:25.911Z,27
2023-12-02T08:40:27.757Z,27
2023-12-02T08:41:29.690Z,27
2023-12-02T08:42:31.768Z,27
2023-12-02T08:43:33.707Z,27
2023-12-02T08:44:35.654Z,27
2023-12-02T08:45:37.421Z,27
2023-12-02T08:46:39.231Z,27
2023-12-02T08:47:41.136Z,27
2023-12-02T08:48:43.067Z,26.9
2023-12-02T08:49:45.097Z,26.9
2023-12-02T08:50:47.050Z,26.9
2023-12-02T08:51:48.830Z,26.9
2023-12-02T08:52:50.676Z,26.9
2023-12-02T08:53:52.800Z,26.9
2023-12-02T08:54:54.534Z,26.9
2023-12-02T08:55:56.331Z,26.9
2023-12-02T08:56:58.412Z,26.9
2023-12-02T08:58:00.181Z,27
2023-12-02T08:59:02.001Z,27
2023-12-02T09:00:04.039Z,27
2023-12-02T09:01:05.827Z,27
2023-12-02T09:02:07.661Z,26.9
2023-12-02T09:03:09.980Z,27
2023-12-02T09:04:11.757Z,27
2023-12-02T09:05:13.840Z,27
2023-12-02T09:06:15.595Z,27
2023-12-02T09:07:17.361Z,27
2023-12-02T09:08:19.212Z,27
2023-12-02T09:09:21.593Z,27
2023-12-02T09:10:23.384Z,27
2023-12-02T09:11:25.193Z,27
2023-12-02T09:12:27.404Z,27
2023-12-02T09:13:29.202Z,27
2023-12-02T09:14:31.153Z,27
2023-12-02T09:15:32.984Z,27
2023-12-02T09:16:34.832Z,27
2023-12-02T09:17:36.962Z,27
2023-12-02T09:18:38.871Z,27
2023-12-02T09:19:41.308Z,27
2023-12-02T09:20:43.380Z,27
2023-12-02T09:21:45.141Z,27
2023-12-02T09:22:47.943Z,27
2023-12-02T09:23:50.572Z,27
2023-12-02T09:24:52.441Z,27
2023-12-02T09:25:54.616Z,27
2023-12-02T09:26:56.839Z,27
2023-12-02T09:27:58.612Z,27
2023-12-02T09:29:00.498Z,27
2023-12-02T09:30:02.725Z,27
2023-12-02T09:31:06.117Z,27
2023-12-02T09:32:13.029Z,27.1
2023-12-02T09:33:14.898Z,27.1
2023-12-02T09:34:17.206Z,27.1
2023-12-02T09:35:18.976Z,27.1
2023-12-02T09:36:20.747Z,27.1
2023-12-02T09:37:22.458Z,27.1
2023-12-02T09:38:24.278Z,27.1
2023-12-02T09:39:26.014Z,27.1
2023-12-02T09:40:27.762Z,27.1
2023-12-02T09:41:29.795Z,27.1
2023-12-02T09:42:31.487Z,27.1
2023-12-02T09:43:33.256Z,27.2
2023-12-02T09:44:35.292Z,27.2
2023-12-02T09:45:37.132Z,27.2
2023-12-02T09:46:38.943Z,27.2
2023-12-02T09:47:40.875Z,27.2
2023-12-02T09:48:43.117Z,27.2
2023-12-02T09:49:45.238Z,27.2
2023-12-02T09:50:47.042Z,27.2
2023-12-02T09:51:48.835Z,27.2
2023-12-02T09:52:50.539Z,27.2
2023-12-02T09:53:52.718Z,27.2
2023-12-02T09:54:54.505Z,27.2
2023-12-02T09:55:56.247Z,27.2
2023-12-02T09:56:58.117Z,27.2
2023-12-02T09:57:59.904Z,27.2
2023-12-02T09:59:01.921Z,27.2
2023-12-02T10:00:04.043Z,27.2
2023-12-02T10:01:05.916Z,27.2
2023-12-02T10:02:07.770Z,27.2
2023-12-02T10:03:10.200Z,27.2
2023-12-02T10:04:12.008Z,27.2
2023-12-02T10:05:14.166Z,27.2
2023-12-02T10:06:17.004Z,27.2
2023-12-02T10:07:19.138Z,27.2
2023-12-02T10:08:22.511Z,27.2
2023-12-02T10:09:25.231Z,27.2
2023-12-02T10:10:27.170Z,27.2
2023-12-02T10:11:29.800Z,27.2
2023-12-02T10:12:31.572Z,27.2
2023-12-02T10:13:33.597Z,27.2
2023-12-02T10:14:35.874Z,27.2
2023-12-02T10:15:37.622Z,27.2
2023-12-02T10:16:39.618Z,27.2
2023-12-02T10:17:41.621Z,27.2
2023-12-02T10:18:43.762Z,27.2
2023-12-02T10:19:45.739Z,27.2
2023-12-02T10:20:47.640Z,27.2
2023-12-02T10:21:49.333Z,27.2
2023-12-02T10:22:51.115Z,27.2
2023-12-02T10:23:53.041Z,27.2
2023-12-02T10:24:54.912Z,27.2
2023-12-02T10:25:56.731Z,27.2
2023-12-02T10:26:58.678Z,27.2
2023-12-02T10:28:00.644Z,27.2
2023-12-02T10:29:02.493Z,27.2
2023-12-02T10:30:04.649Z,27.2
2023-12-02T10:31:06.420Z,27.2
2023-12-02T10:32:08.196Z,27.2
2023-12-02T10:33:10.266Z,27.2
2023-12-02T10:34:12.060Z,27.2
2023-12-02T10:35:14.037Z,27.2
2023-12-02T10:36:16.193Z,27.2
2023-12-02T10:37:17.966Z,27.2
2023-12-02T10:38:19.703Z,27.2
2023-12-02T10:39:21.487Z,27.2
2023-12-02T10:40:23.240Z,27.2
2023-12-02T10:41:25.003Z,27.2
2023-12-02T10:42:26.796Z,27.2
2023-12-02T10:43:28.569Z,27.2
2023-12-02T10:44:30.940Z,27.2
2023-12-02T10:45:32.774Z,27.2
2023-12-02T10:46:34.534Z,27.2
2023-12-02T10:47:36.558Z,27.2
2023-12-02T10:48:38.934Z,27.2
2023-12-02T10:49:40.964Z,27.2
2023-12-02T10:50:43.473Z,27.2
2023-12-02T10:51:45.298Z,27.2
2023-12-02T10:52:47.005Z,27.2
2023-12-02T10:53:48.726Z,27.2
2023-12-02T10:54:50.472Z,27.2
2023-12-02T10:55:52.309Z,27.3
2023-12-02T10:56:54.074Z,27.2
2023-12-02T10:57:56.106Z,27.2
2023-12-02T10:58:57.908Z,27.2
2023-12-02T10:59:59.740Z,27.2
2023-12-02T11:01:02.088Z,27.2
2023-12-02T11:02:04.340Z,27.2
2023-12-02T11:03:06.272Z,27.2
2023-12-02T11:04:08.518Z,27.2
2023-12-02T11:05:13.277Z,27.2
2023-12-02T11:06:15.199Z,27.2
2023-12-02T11:07:17.065Z,27.2
2023-12-02T11:08:19.037Z,27.2
2023-12-02T11:09:20.779Z,27.3
2023-12-02T11:10:22.605Z,27.3
2023-12-02T11:11:24.460Z,27.3
2023-12-02T11:12:26.256Z,27.2
2023-12-02T11:13:28.181Z,27.2
2023-12-02T11:14:29.945Z,27.2
2023-12-02T11:15:31.793Z,27.3
2023-12-02T11:16:33.826Z,27.3
2023-12-02T11:17:35.622Z,27.3
2023-12-02T11:18:37.571Z,27.3
2023-12-02T11:19:39.821Z,27.3
2023-12-02T11:20:41.804Z,27.3
2023-12-02T11:21:45.929Z,27.2
2023-12-02T11:22:48.126Z,27.2
2023-12-02T11:23:49.851Z,27.2
2023-12-02T11:24:51.544Z,27.2
2023-12-02T11:25:53.322Z,27.2
2023-12-02T11:26:55.123Z,27.2
2023-12-02T11:27:57.231Z,27.2
2023-12-02T11:28:59.022Z,27.2
2023-12-02T11:30:00.805Z,27.2
2023-12-02T11:31:03.015Z,27.2
2023-12-02T11:32:04.804Z,27.2
2023-12-02T11:33:06.599Z,27.2
2023-12-02T11:34:09.030Z,27.2
2023-12-02T11:35:11.563Z,27.2
2023-12-02T11:36:13.463Z,27.3
2023-12-02T11:37:15.602Z,27.2
2023-12-02T11:38:17.338Z,27.2
2023-12-02T11:39:19.168Z,27.2
2023-12-02T11:40:21.023Z,27.2
2023-12-02T11:41:22.828Z,27.2
2023-12-02T11:42:24.658Z,27.2
2023-12-02T11:43:26.759Z,27.2
2023-12-02T11:44:28.740Z,27.2
2023-12-02T11:45:30.604Z,27.2
2023-12-02T11:46:32.475Z,27.2
2023-12-02T11:47:34.334Z,27.2
2023-12-02T11:48:36.968Z,27.2
2023-12-02T11:49:39.608Z,27.1
2023-12-02T11:50:43.628Z,27.1
2023-12-02T11:51:46.409Z,27.1
2023-12-02T11:52:48.212Z,27
2023-12-02T11:53:50.042Z,27
2023-12-02T11:54:51.793Z,26.9
2023-12-02T11:55:54.001Z,26.9
2023-12-02T11:56:55.886Z,26.9
2023-12-02T11:57:57.748Z,26.9
2023-12-02T11:58:59.552Z,26.9
2023-12-02T12:00:01.688Z,27
2023-12-02T12:01:04.050Z,27
2023-12-02T12:02:05.830Z,27
2023-12-02T12:03:10.840Z,27
2023-12-02T12:04:13.175Z,27.1
2023-12-02T12:05:14.990Z,27.1
2023-12-02T12:06:17.053Z,27.1
2023-12-02T12:07:19.509Z,27.1
2023-12-02T12:08:23.207Z,27.2
2023-12-02T12:09:26.114Z,27.2
2023-12-02T12:10:28.099Z,27.2
2023-12-02T12:11:29.848Z,27.2
2023-12-02T12:12:31.639Z,27.2
2023-12-02T12:13:33.660Z,27.2
2023-12-02T12:14:35.464Z,27.2
2023-12-02T12:15:37.231Z,27.2
2023-12-02T12:16:42.381Z,27.3
2023-12-02T12:17:45.464Z,27.3
2023-12-02T12:18:47.537Z,27.3
2023-12-02T12:19:49.849Z,27.3
2023-12-02T12:20:52.126Z,27.3
2023-12-02T12:21:53.951Z,27.3
2023-12-02T12:22:55.716Z,27.3
2023-12-02T12:23:57.566Z,27.3
2023-12-02T12:24:59.500Z,27.3
2023-12-02T12:26:01.239Z,27.3
2023-12-02T12:27:03.070Z,27.3
2023-12-02T12:28:05.250Z,27.3
2023-12-02T12:29:07.148Z,27.3
2023-12-02T12:30:08.895Z,27.4
2023-12-02T12:31:14.046Z,27.3
2023-12-02T12:32:15.852Z,27.3
2023-12-02T12:33:17.673Z,27.3
2023-12-02T12:34:20.216Z,27.3
2023-12-02T12:35:25.661Z,27.3
2023-12-02T12:36:27.487Z,27.3
2023-12-02T12:37:29.699Z,27.3
2023-12-02T12:38:31.482Z,27.3
2023-12-02T12:39:33.228Z,27.3
2023-12-02T12:40:35.193Z,27.3
2023-12-02T12:41:36.968Z,27.3
2023-12-02T12:42:38.727Z,27.3
2023-12-02T12:43:40.779Z,27.3
2023-12-02T12:44:42.672Z,27.3
2023-12-02T12:45:44.543Z,27.3
2023-12-02T12:46:46.925Z,27.3
2023-12-02T12:47:48.797Z,27.3
2023-12-02T12:48:50.937Z,27.3
2023-12-02T12:49:52.969Z,27.3
2023-12-02T12:50:54.824Z,27.3
2023-12-02T12:51:56.705Z,27.3
2023-12-02T12:52:58.449Z,27.3
2023-12-02T12:54:00.289Z,27.3
2023-12-02T12:55:02.761Z,27.3
2023-12-02T12:56:04.552Z,27.3
2023-12-02T12:57:06.309Z,27.3
2023-12-02T12:58:08.175Z,27.3
2023-12-02T12:59:09.976Z,27.3
2023-12-02T13:00:11.841Z,27.3
2023-12-02T13:01:15.498Z,27.3
2023-12-02T13:02:20.287Z,27.3
2023-12-02T13:03:22.064Z,27.3
2023-12-02T13:04:24.850Z,27.3
2023-12-02T13:05:26.963Z,27.3
2023-12-02T13:06:28.997Z,27.3
2023-12-02T13:07:31.632Z,27.3
2023-12-02T13:08:33.464Z,27.3
2023-12-02T13:09:35.369Z,27.3
2023-12-02T13:10:37.613Z,27.3
2023-12-02T13:11:39.415Z,27.3
2023-12-02T13:12:41.150Z,27.3
2023-12-02T13:13:43.337Z,27.3
2023-12-02T13:14:45.285Z,27.4
2023-12-02T13:15:47.116Z,27.4
2023-12-02T13:16:48.794Z,27.4
2023-12-02T13:17:50.564Z,27.4
2023-12-02T13:18:52.745Z,27.4
2023-12-02T13:19:58.000Z,27.4
2023-12-02T13:21:00.303Z,27.4
2023-12-02T13:22:02.295Z,27.4
2023-12-02T13:23:05.033Z,27.4
2023-12-02T13:24:07.006Z,27.4
2023-12-02T13:25:08.914Z,27.4
2023-12-02T13:26:10.649Z,27.4
2023-12-02T13:27:15.371Z,27.4
2023-12-02T13:28:17.203Z,27.4
2023-12-02T13:29:18.934Z,27.4
2023-12-02T13:30:20.711Z,27.4
2023-12-02T13:31:22.704Z,27.3
2023-12-02T13:32:24.438Z,27.3
2023-12-02T13:33:26.344Z,27.4
2023-12-02T13:34:28.973Z,27.4
2023-12-02T13:35:31.360Z,27.4
2023-12-02T13:36:33.315Z,27.4
2023-12-02T13:37:35.414Z,27.4
2023-12-02T13:38:37.301Z,27.4
2023-12-02T13:39:39.121Z,27.4
2023-12-02T13:40:41.086Z,27.4
2023-12-02T13:41:42.881Z,27.4
2023-12-02T13:42:44.665Z,27.4
2023-12-02T13:43:46.600Z,27.4
2023-12-02T13:44:48.343Z,27.4
2023-12-02T13:45:50.110Z,27.5
2023-12-02T13:46:51.826Z,27.8
2023-12-02T13:47:53.624Z,28.3
2023-12-02T13:48:55.684Z,28.6
2023-12-02T13:49:57.474Z,28.7
2023-12-02T13:51:02.863Z,28.6
2023-12-02T13:52:04.771Z,28.5
2023-12-02T13:53:06.503Z,28.3
2023-12-02T13:54:08.349Z,28.2
2023-12-02T13:55:10.461Z,28
2023-12-02T13:56:12.326Z,27.9
2023-12-02T13:57:14.103Z,27.8
2023-12-02T13:58:16.080Z,27.8
2023-12-02T13:59:17.821Z,27.7